Time;durP1;ratioP1;P1;durP2;ratioP2;P2;SDS_P1;SDS_P2;PMS_P1;PMS_P2;Temp;Humidity;BMP_temperature;BMP_pressure;BME280_temperature;BME280_humidity;BME280_pressure;Samples;Min_cycle;Max_cycle;Signal;HPM_P1;HPM_P2
2021/04/18 00:00:17;;;;;;;18.77;12.80;;;;;;;7.66;59.46;97025.62;1755029;82;21278;-80
2021/04/18 00:02:49;;;;;;;17.42;11.57;;;;;;;7.70;59.43;97029.73;1690436;85;21614;-81
2021/04/18 00:05:21;;;;;;;15.60;10.55;;;;;;;7.70;59.32;97032.36;1755188;82;21152;-79
2021/04/18 00:07:49;;;;;;;18.82;11.53;;;;;;;7.74;59.48;97032.98;1755144;82;21247;-80
2021/04/18 00:10:18;;;;;;;17.92;12.30;;;;;;;7.73;59.45;97029.53;1755324;82;21302;-82
2021/04/18 00:12:45;;;;;;;19.07;11.57;;;;;;;7.73;59.15;97029.98;1748862;82;21231;-83
2021/04/18 00:15:15;;;;;;;19.82;11.28;;;;;;;7.80;59.01;97022.05;1736826;82;21180;-81
2021/04/18 00:17:42;;;;;;;17.07;10.85;;;;;;;7.86;58.79;97026.02;1736720;82;21733;-81
2021/04/18 00:20:12;;;;;;;14.07;10.38;;;;;;;7.90;58.54;97024.39;1752194;82;21273;-82
2021/04/18 00:22:40;;;;;;;14.28;10.05;;;;;;;7.93;58.25;97024.18;1754978;82;21245;-83
2021/04/18 00:25:09;;;;;;;13.62;9.95;;;;;;;7.94;57.95;97023.23;1678228;85;21292;-81
2021/04/18 00:27:37;;;;;;;13.05;9.55;;;;;;;7.93;57.75;97020.73;1724048;82;21153;-82
2021/04/18 00:30:08;;;;;;;12.98;9.33;;;;;;;7.93;57.60;97026.80;1721772;83;21690;-80
2021/04/18 00:32:37;;;;;;;13.65;10.55;;;;;;;7.88;57.41;97031.55;1730290;82;21152;-79
2021/04/18 00:35:07;;;;;;;17.57;11.05;;;;;;;7.83;57.42;97025.77;1750502;82;21274;-79
2021/04/18 00:37:34;;;;;;;15.70;9.93;;;;;;;7.82;57.39;97026.72;1750562;82;21155;-79
2021/04/18 00:40:07;;;;;;;14.75;8.80;;;;;;;7.78;57.39;97018.22;1750890;82;21274;-79
2021/04/18 00:42:35;;;;;;;14.05;9.68;;;;;;;7.77;57.29;97017.85;1750637;82;21286;-78
2021/04/18 00:45:06;;;;;;;11.55;9.00;;;;;;;7.72;57.48;97025.68;1750498;82;21318;-79
2021/04/18 00:47:33;;;;;;;11.85;8.23;;;;;;;7.67;57.43;97024.69;1750793;82;21184;-80
2021/04/18 00:50:01;;;;;;;12.03;8.13;;;;;;;7.64;57.41;97026.23;1750113;82;21620;-82
2021/04/18 00:52:28;;;;;;;10.75;7.67;;;;;;;7.61;57.54;97024.64;1747335;82;21275;-78
2021/04/18 00:54:56;;;;;;;12.13;8.80;;;;;;;7.60;57.38;97030.86;1744433;82;21298;-81
2021/04/18 00:57:23;;;;;;;14.53;9.38;;;;;;;7.47;57.60;97019.03;1680883;85;21762;-80
2021/04/18 00:59:51;;;;;;;13.78;9.40;;;;;;;7.46;57.98;97025.25;1744867;82;21132;-82
2021/04/18 01:02:19;;;;;;;12.43;9.43;;;;;;;7.44;58.04;97024.97;1680918;85;21209;-80
2021/04/18 01:04:47;;;;;;;14.33;10.45;;;;;;;7.42;58.14;97021.15;1744782;82;21149;-83
2021/04/18 01:07:14;;;;;;;13.93;10.32;;;;;;;7.42;58.26;97022.95;1746782;82;21283;-81
2021/04/18 01:09:41;;;;;;;14.30;10.32;;;;;;;7.39;58.19;97021.34;1754831;82;21270;-80
2021/04/18 01:12:10;;;;;;;14.85;10.45;;;;;;;7.38;58.07;97024.09;1683387;85;21150;-80
2021/04/18 01:14:37;;;;;;;15.00;11.63;;;;;;;7.38;58.07;97017.53;1727941;82;21268;-81
2021/04/18 01:17:05;;;;;;;17.42;12.53;;;;;;;7.36;58.33;97017.65;1721570;83;21292;-81
2021/04/18 01:19:34;;;;;;;18.15;12.95;;;;;;;7.36;58.39;97011.09;1727078;82;21286;-79
2021/04/18 01:22:04;;;;;;;17.27;12.20;;;;;;;7.35;58.44;97009.41;1743191;82;21141;-83
2021/04/18 01:24:39;;;;;;;16.25;11.83;;;;;;;7.34;58.35;97011.17;1721636;83;21266;-83
2021/04/18 01:27:19;;;;;;;18.70;13.05;;;;;;;7.31;58.22;97009.24;1720927;83;21320;-82
2021/04/18 01:29:49;;;;;;;19.23;12.90;;;;;;;7.29;58.46;97012.43;1721742;83;21152;-81
2021/04/18 01:32:21;;;;;;;18.77;12.60;;;;;;;7.28;58.83;97006.85;1721929;83;21223;-83
2021/04/18 01:34:50;;;;;;;14.07;9.68;;;;;;;7.27;59.04;97009.92;1721953;83;21286;-81
2021/04/18 01:37:20;;;;;;;14.78;10.38;;;;;;;7.27;58.94;97006.48;1721782;82;21298;-78
2021/04/18 01:39:48;;;;;;;15.10;11.43;;;;;;;7.27;58.86;97006.48;1739603;82;21125;-83
2021/04/18 01:42:15;;;;;;;13.35;10.13;;;;;;;7.25;59.00;97006.56;1736629;82;21148;-82
2021/04/18 01:44:44;;;;;;;12.47;9.13;;;;;;;7.24;59.23;97004.87;1736727;83;21161;-84
2021/04/18 01:47:11;;;;;;;13.48;8.85;;;;;;;7.24;59.25;97005.37;1689090;85;21172;-81
2021/04/18 01:49:39;;;;;;;13.45;8.85;;;;;;;7.23;59.48;97004.54;1689166;84;21145;-85
2021/04/18 01:52:07;;;;;;;16.82;10.63;;;;;;;7.22;59.68;97000.23;1741413;82;21126;-79
2021/04/18 01:54:35;;;;;;;14.20;10.13;;;;;;;7.21;59.92;97002.48;1659092;85;21317;-80
2021/04/18 01:57:03;;;;;;;14.00;10.65;;;;;;;7.20;59.86;97004.73;1721223;83;21335;-80
2021/04/18 01:59:32;;;;;;;17.17;11.88;;;;;;;7.17;60.00;97003.17;1720540;83;21200;-81
2021/04/18 02:02:24;;;;;;;20.23;13.30;;;;;;;7.22;60.76;96992.83;1826708;77;22644;-81
2021/04/18 02:04:54;;;;;;;17.27;12.20;;;;;;;7.15;60.27;96993.71;1762485;81;21147;-80
2021/04/18 02:07:21;;;;;;;17.73;12.07;;;;;;;7.12;59.92;96989.52;1771985;81;21137;-81
2021/04/18 02:09:49;;;;;;;19.67;13.30;;;;;;;7.11;59.91;96986.53;1773189;81;21309;-80
2021/04/18 02:12:17;;;;;;;16.62;12.60;;;;;;;7.02;60.41;96972.28;1767965;81;21247;-82
2021/04/18 02:14:46;;;;;;;15.60;11.63;;;;;;;7.07;60.64;96985.08;1744971;81;21250;-80
2021/04/18 02:17:16;;;;;;;16.15;11.10;;;;;;;7.07;60.43;96986.39;1763150;81;21628;-81
2021/04/18 02:19:43;;;;;;;20.37;12.50;;;;;;;7.04;60.27;96980.03;1764106;80;21143;-81
2021/04/18 02:22:10;;;;;;;16.93;11.22;;;;;;;6.99;60.71;96972.97;1743250;82;21144;-81
2021/04/18 02:24:40;;;;;;;18.60;11.10;;;;;;;6.97;60.85;96979.61;1742713;82;21577;-82
2021/04/18 02:27:08;;;;;;;13.88;10.93;;;;;;;6.83;61.15;96958.27;1743265;82;21298;-81
2021/04/18 02:29:38;;;;;;;13.22;10.40;;;;;;;6.98;61.16;96985.70;1742194;81;21257;-82
2021/04/18 02:32:08;;;;;;;15.03;11.00;;;;;;;6.99;60.82;96984.77;1763129;80;21163;-82
2021/04/18 02:34:37;;;;;;;13.38;9.73;;;;;;;6.97;61.20;96982.23;1736337;81;21159;-81
2021/04/18 02:37:05;;;;;;;11.70;9.68;;;;;;;6.94;61.41;96979.83;1774580;80;21680;-81
2021/04/18 02:39:33;;;;;;;12.78;9.48;;;;;;;7.03;61.53;96991.45;1776844;81;21269;-83
2021/04/18 02:42:01;;;;;;;12.82;8.55;;;;;;;7.08;61.54;96989.38;1744841;82;21132;-81
2021/04/18 02:44:28;;;;;;;12.03;8.40;;;;;;;7.07;61.65;96969.81;1772611;81;21171;-81
2021/04/18 02:46:58;;;;;;;12.07;8.43;;;;;;;7.11;62.10;96957.70;1747853;82;21278;-82
2021/04/18 02:49:26;;;;;;;11.50;7.95;;;;;;;7.22;62.02;96964.84;1747705;82;21140;-82
2021/04/18 02:51:54;;;;;;;12.73;8.50;;;;;;;7.27;62.16;96967.15;1747574;82;21317;-82
2021/04/18 02:54:22;;;;;;;14.70;8.98;;;;;;;7.26;62.13;96958.91;1762755;81;21580;-83
2021/04/18 02:56:51;;;;;;;12.05;8.55;;;;;;;7.40;62.08;96973.69;1777977;81;21146;-81
2021/04/18 02:59:19;;;;;;;10.80;7.62;;;;;;;7.54;62.16;96976.66;1778334;81;21146;-81
2021/04/18 03:01:47;;;;;;;15.25;8.90;;;;;;;7.54;62.16;96976.66;1754438;81;21676;-82
2021/04/18 03:04:15;;;;;;;11.95;8.80;;;;;;;7.57;61.93;96979.05;1743024;82;21337;-81
2021/04/18 03:06:42;;;;;;;11.18;8.03;;;;;;;7.62;61.95;96977.78;1743107;82;21290;-80
2021/04/18 03:09:09;;;;;;;12.65;7.25;;;;;;;7.75;61.88;96979.55;1742776;82;21320;-82
2021/04/18 03:11:38;;;;;;;9.78;7.70;;;;;;;7.76;61.33;96974.67;1741254;82;21151;-82
2021/04/18 03:14:08;;;;;;;11.75;8.28;;;;;;;7.78;61.16;96961.81;1740462;82;21277;-80
2021/04/18 03:16:35;;;;;;;10.00;7.20;;;;;;;7.80;61.06;96966.94;1713327;82;21171;-81
2021/04/18 03:19:04;;;;;;;11.25;8.75;;;;;;;7.77;60.81;96983.74;1742495;82;21120;-81
2021/04/18 03:21:31;;;;;;;11.05;8.05;;;;;;;7.72;60.73;96971.44;1742470;82;21174;-83
2021/04/18 03:23:59;;;;;;;11.80;8.43;;;;;;;7.66;60.71;96970.08;1741943;82;21127;-79
2021/04/18 03:26:27;;;;;;;10.58;8.30;;;;;;;7.66;60.80;96966.14;1742052;82;21561;-81
2021/04/18 03:28:57;;;;;;;13.88;8.50;;;;;;;7.65;60.69;96967.58;1741951;82;21143;-79
2021/04/18 03:31:25;;;;;;;10.45;8.43;;;;;;;7.59;60.61;96952.25;1741441;82;21577;-80
2021/04/18 03:33:55;;;;;;;12.93;7.83;;;;;;;7.62;60.57;96966.47;1721314;82;21099;-81
2021/04/18 03:36:22;;;;;;;10.50;8.10;;;;;;;7.58;60.38;96967.16;1713066;82;21151;-79
2021/04/18 03:38:50;;;;;;;15.10;8.25;;;;;;;7.53;60.58;96966.63;1741841;82;21166;-81
2021/04/18 03:41:19;;;;;;;10.90;8.35;;;;;;;7.52;60.66;96965.44;1741475;82;21213;-80
2021/04/18 03:43:47;;;;;;;10.98;7.70;;;;;;;7.48;60.54;96968.27;1712579;82;21160;-81
2021/04/18 03:46:16;;;;;;;9.45;7.47;;;;;;;7.45;60.54;96968.50;1741933;82;21187;-82
2021/04/18 03:48:45;;;;;;;12.05;8.08;;;;;;;7.43;60.56;96967.76;1741778;82;21591;-79
2021/04/18 03:51:13;;;;;;;10.60;7.85;;;;;;;7.41;60.59;96967.50;1742108;82;21119;-82
2021/04/18 03:53:45;;;;;;;10.38;8.43;;;;;;;7.38;60.68;96971.16;1741712;82;21211;-80
2021/04/18 03:56:14;;;;;;;11.78;8.08;;;;;;;7.35;60.71;96968.28;1719619;82;21293;-81
2021/04/18 03:58:46;;;;;;;13.62;8.58;;;;;;;7.35;60.74;96976.63;1712442;84;21297;-82
2021/04/18 04:01:15;;;;;;;10.78;8.45;;;;;;;7.34;60.79;96973.64;1740778;80;21270;-79
2021/04/18 04:03:43;;;;;;;12.80;9.05;;;;;;;7.32;60.88;96979.00;1758453;82;21116;-81
2021/04/18 04:06:13;;;;;;;13.03;9.15;;;;;;;7.31;60.79;96976.01;1758240;81;21128;-82
2021/04/18 04:08:41;;;;;;;14.13;9.40;;;;;;;7.32;60.92;96984.70;1757891;82;21222;-81
2021/04/18 04:11:11;;;;;;;13.53;9.95;;;;;;;7.31;61.00;96986.95;1755582;82;21255;-79
2021/04/18 04:13:40;;;;;;;13.95;9.58;;;;;;;7.30;61.04;96993.99;1758076;82;21138;-79
2021/04/18 04:16:08;;;;;;;19.27;10.32;;;;;;;7.32;61.06;96996.50;1729583;82;21564;-79
2021/04/18 04:18:36;;;;;;;13.22;9.98;;;;;;;7.36;61.11;97000.60;1757670;82;21130;-79
2021/04/18 04:21:29;;;;;;;14.07;10.13;;;;;;;7.41;61.67;96997.66;1853369;77;22733;-80
2021/04/18 04:24:08;;;;;;;15.95;9.35;;;;;;;7.37;61.24;97000.97;1728450;81;21130;-80
2021/04/18 04:26:36;;;;;;;11.75;8.70;;;;;;;7.38;61.33;97002.62;1804756;78;21163;-80
2021/04/18 04:29:03;;;;;;;13.10;8.83;;;;;;;7.43;61.15;97007.55;1796424;80;21254;-79
2021/04/18 04:31:31;;;;;;;11.50;8.65;;;;;;;7.46;61.08;97005.59;1805575;78;21262;-81
2021/04/18 04:33:58;;;;;;;11.83;8.63;;;;;;;7.49;61.16;97002.73;1761402;81;21144;-78
2021/04/18 04:36:25;;;;;;;10.00;8.10;;;;;;;7.52;61.28;97002.98;1739504;81;21136;-80
2021/04/18 04:38:53;;;;;;;11.88;8.28;;;;;;;7.57;61.07;97004.83;1744128;81;21270;-83
2021/04/18 04:41:20;;;;;;;11.55;8.78;;;;;;;7.63;60.96;97007.50;1740442;82;21113;-80
2021/04/18 04:43:48;;;;;;;14.40;8.25;;;;;;;7.66;60.94;97004.19;1740989;82;21278;-80
2021/04/18 04:46:16;;;;;;;12.45;7.78;;;;;;;7.73;60.82;97006.37;1741024;82;21270;-80
2021/04/18 04:48:43;;;;;;;11.70;8.90;;;;;;;7.78;60.97;97010.84;1770093;81;21258;-80
2021/04/18 04:51:10;;;;;;;9.73;7.75;;;;;;;7.83;60.98;97007.41;1771365;81;21784;-80
2021/04/18 04:53:38;;;;;;;10.03;8.35;;;;;;;7.90;60.97;97014.38;1744264;81;21155;-79
2021/04/18 04:56:06;;;;;;;11.03;9.28;;;;;;;7.95;60.89;97015.73;1740784;82;21116;-81
2021/04/18 04:58:33;;;;;;;9.48;7.78;;;;;;;8.03;60.90;97011.72;1741078;82;21318;-80
2021/04/18 05:01:01;;;;;;;12.40;8.63;;;;;;;8.10;60.59;97003.76;1740939;82;21163;-82
2021/04/18 05:03:28;;;;;;;12.15;8.85;;;;;;;8.17;60.73;97011.55;1740811;82;21310;-82
2021/04/18 05:05:56;;;;;;;10.35;7.37;;;;;;;8.24;60.65;97004.94;1753202;81;21254;-80
2021/04/18 05:08:23;;;;;;;11.30;9.28;;;;;;;8.29;60.28;97001.48;1741051;81;21147;-81
2021/04/18 05:10:50;;;;;;;10.85;8.70;;;;;;;8.22;60.40;97004.66;1740465;81;21801;-78
2021/04/18 05:13:19;;;;;;;12.23;7.65;;;;;;;8.18;60.77;97005.84;1740603;82;21144;-82
2021/04/18 05:15:46;;;;;;;10.55;8.45;;;;;;;8.23;60.81;97008.96;1741118;82;21145;-82
2021/04/18 05:18:13;;;;;;;12.90;9.03;;;;;;;8.14;60.83;97005.23;1741368;81;21155;-80
2021/04/18 05:20:41;;;;;;;12.47;8.40;;;;;;;8.08;61.14;97003.88;1744246;82;21152;-80
2021/04/18 05:23:08;;;;;;;13.80;8.93;;;;;;;8.12;61.27;97007.94;1728168;82;21125;-84
2021/04/18 05:25:35;;;;;;;10.70;7.58;;;;;;;8.10;61.15;97008.55;1737215;82;21322;-83
2021/04/18 05:28:03;;;;;;;12.63;8.95;;;;;;;8.13;61.61;97009.62;1725082;82;21109;-77
2021/04/18 05:30:30;;;;;;;12.53;8.23;;;;;;;8.03;61.26;97011.23;1723542;82;21298;-85
2021/04/18 05:32:57;;;;;;;11.50;9.35;;;;;;;7.97;61.24;97009.05;1714691;83;21163;-79
2021/04/18 05:35:24;;;;;;;12.80;10.25;;;;;;;7.93;61.34;97014.99;1707734;83;21126;-79
2021/04/18 05:37:52;;;;;;;12.28;9.73;;;;;;;7.95;61.34;97008.31;1726111;83;21127;-79
2021/04/18 05:40:19;;;;;;;16.42;10.55;;;;;;;8.04;61.25;97011.59;1718950;82;21251;-82
2021/04/18 05:42:46;;;;;;;20.37;10.82;;;;;;;8.08;60.98;97014.38;1730696;83;21125;-79
2021/04/18 05:45:14;;;;;;;15.83;10.88;;;;;;;8.13;60.96;97013.56;1733788;83;21137;-78
2021/04/18 05:47:43;;;;;;;17.95;12.80;;;;;;;8.20;60.77;97014.45;1737956;82;21214;-80
2021/04/18 05:50:12;;;;;;;21.40;13.20;;;;;;;8.20;60.65;97013.14;1699133;83;21584;-79
2021/04/18 05:52:39;;;;;;;21.95;14.35;;;;;;;8.26;60.77;97010.06;1718426;82;21274;-78
2021/04/18 05:55:10;;;;;;;23.80;16.45;;;;;;;8.25;60.41;97018.89;1701306;83;21127;-80
2021/04/18 05:57:37;;;;;;;20.00;14.38;;;;;;;8.21;60.38;97015.65;1746840;81;21134;-78
2021/04/18 06:00:06;;;;;;;24.52;14.50;;;;;;;8.22;60.32;97023.03;1751507;81;21115;-78
2021/04/18 06:02:35;;;;;;;24.45;14.85;;;;;;;8.17;60.17;97017.30;1715954;84;21633;-81
2021/04/18 06:05:04;;;;;;;21.40;15.83;;;;;;;8.18;60.21;97015.86;1727948;83;21139;-79
2021/04/18 06:07:33;;;;;;;26.30;18.87;;;;;;;8.17;60.15;97020.73;1744710;82;21152;-82
2021/04/18 06:10:01;;;;;;;26.95;17.10;;;;;;;8.13;60.26;97017.50;1719437;83;21158;-77
2021/04/18 06:12:28;;;;;;;23.05;15.90;;;;;;;8.13;60.02;97020.13;1717710;82;21109;-81
2021/04/18 06:14:55;;;;;;;31.23;17.00;;;;;;;8.09;59.79;97021.31;1718049;84;21267;-80
2021/04/18 06:17:24;;;;;;;28.30;17.20;;;;;;;8.06;59.83;97018.07;1718112;84;21263;-81
2021/04/18 06:19:52;;;;;;;27.15;16.62;;;;;;;8.01;59.78;97027.59;1719463;82;21198;-79
2021/04/18 06:22:19;;;;;;;29.35;17.07;;;;;;;7.98;59.73;97023.86;1789734;80;21129;-80
2021/04/18 06:24:47;;;;;;;19.20;15.00;;;;;;;7.97;59.79;97020.86;1789317;79;21116;-81
2021/04/18 06:27:14;;;;;;;28.87;16.90;;;;;;;7.96;59.70;97017.41;1790815;79;21128;-80
2021/04/18 06:29:41;;;;;;;21.62;13.80;;;;;;;7.96;59.68;97024.43;1793448;79;21546;-79
2021/04/18 06:32:09;;;;;;;25.20;15.35;;;;;;;7.93;59.64;97025.49;1787461;80;21120;-78
2021/04/18 06:34:39;;;;;;;19.30;13.72;;;;;;;7.83;59.68;97019.21;1787550;80;21113;-79
2021/04/18 06:37:06;;;;;;;18.73;13.08;;;;;;;7.86;59.67;97021.63;1792638;79;21243;-79
2021/04/18 06:39:36;;;;;;;22.98;15.40;;;;;;;7.90;59.59;97018.31;1801143;79;21131;-80
2021/04/18 06:42:06;;;;;;;20.20;13.40;;;;;;;7.86;59.61;97019.46;1786704;80;21325;-81
2021/04/18 06:44:34;;;;;;;20.72;12.65;;;;;;;7.89;59.41;97021.87;1787112;80;21254;-79
2021/04/18 06:47:02;;;;;;;15.25;11.30;;;;;;;7.87;59.27;97019.83;1788952;79;21199;-82
2021/04/18 06:49:37;;;;;;;21.33;13.40;;;;;;;7.85;59.20;97019.09;1787456;79;21266;-79
2021/04/18 06:52:08;;;;;;;18.45;14.00;;;;;;;7.86;59.19;97021.63;1787270;80;21246;-78
2021/04/18 06:54:35;;;;;;;17.65;11.57;;;;;;;7.89;59.27;97024.50;1786966;80;21112;-79
2021/04/18 06:57:03;;;;;;;16.15;11.22;;;;;;;7.96;59.30;97027.05;1786935;80;21128;-81
2021/04/18 06:59:37;;;;;;;19.40;11.48;;;;;;;8.01;59.12;97024.96;1787164;80;21317;-79
2021/04/18 07:02:05;;;;;;;14.78;11.78;;;;;;;8.04;59.48;97027.84;1786961;80;21290;-81
2021/04/18 07:04:34;;;;;;;18.05;13.25;;;;;;;8.04;59.49;97024.72;1786694;80;21254;-81
2021/04/18 07:07:03;;;;;;;17.67;12.85;;;;;;;8.03;59.46;97029.60;1786634;80;21493;-79
2021/04/18 07:09:30;;;;;;;20.40;12.28;;;;;;;8.07;60.64;97030.25;1787073;79;21251;-79
2021/04/18 07:12:02;;;;;;;15.15;11.22;;;;;;;8.08;59.83;97035.38;1789903;80;21673;-79
2021/04/18 07:14:34;;;;;;;18.87;11.80;;;;;;;8.16;59.56;97026.11;1787658;79;21259;-79
2021/04/18 07:17:14;;;;;;;15.55;10.40;;;;;;;8.25;59.63;97026.77;1790446;79;21081;-83
2021/04/18 07:19:47;;;;;;;10.03;7.42;;;;;;;8.39;58.87;97029.70;1786277;80;21168;-79
2021/04/18 07:22:29;;;;;;;10.82;6.42;;;;;;;8.51;58.49;97023.60;1805156;79;21119;-79
2021/04/18 07:25:01;;;;;;;9.58;5.60;;;;;;;8.64;58.50;97026.16;1792596;79;21112;-78
2021/04/18 07:27:50;;;;;;;9.43;6.62;;;;;;;8.74;57.92;97020.59;1791233;79;21120;-79
2021/04/18 07:30:27;;;;;;;9.43;6.53;;;;;;;8.80;55.95;97022.39;1712431;83;21180;-78
2021/04/18 07:33:07;;;;;;;10.53;5.37;;;;;;;8.92;57.10;97021.48;1696363;84;21592;-79
2021/04/18 07:35:41;;;;;;;7.70;6.28;;;;;;;9.05;56.91;97028.80;1742881;81;21250;-79
2021/04/18 07:38:21;;;;;;;9.98;5.85;;;;;;;9.16;57.09;97032.41;1738800;82;21164;-79
2021/04/18 07:40:53;;;;;;;11.18;7.03;;;;;;;9.21;56.92;97040.32;1752175;81;21123;-78
2021/04/18 07:43:20;;;;;;;8.63;5.40;;;;;;;9.21;56.39;97044.27;1721654;82;21136;-79
2021/04/18 07:45:50;;;;;;;9.60;5.37;;;;;;;9.23;56.70;97049.44;1741947;82;21137;-79
2021/04/18 07:48:20;;;;;;;8.90;5.60;;;;;;;9.17;56.03;97040.67;1713041;84;21183;-80
2021/04/18 07:50:49;;;;;;;6.25;4.85;;;;;;;9.11;56.09;97047.23;1715488;82;21149;-79
2021/04/18 07:53:21;;;;;;;7.95;5.47;;;;;;;9.07;55.81;97040.54;1712775;84;21132;-80
2021/04/18 07:55:49;;;;;;;12.45;6.42;;;;;;;9.05;55.61;97032.75;1742793;82;21301;-82
2021/04/18 07:58:16;;;;;;;35.25;20.10;;;;;;;9.04;56.61;97034.19;1742589;82;21126;-78
2021/04/18 08:00:46;;;;;;;12.95;8.33;;;;;;;9.17;56.85;97025.75;1742001;82;21131;-79
2021/04/18 08:03:15;;;;;;;45.80;27.20;;;;;;;9.38;57.02;97018.00;1771393;81;21624;-78
2021/04/18 08:05:46;;;;;;;15.95;10.35;;;;;;;9.63;57.08;97014.78;1764559;81;21561;-78
2021/04/18 08:08:15;;;;;;;22.98;13.20;;;;;;;9.91;56.48;97009.98;1764461;81;21593;-81
2021/04/18 08:10:47;;;;;;;14.93;7.58;;;;;;;10.10;56.34;97006.75;1758880;81;21124;-79
2021/04/18 08:13:22;;;;;;;9.40;6.78;;;;;;;10.40;56.05;97008.38;1764423;81;21566;-79
2021/04/18 08:16:04;;;;;;;15.45;9.65;;;;;;;10.68;55.47;97012.71;1762311;81;21132;-78
2021/04/18 08:18:46;;;;;;;10.68;6.67;;;;;;;10.98;54.98;97008.02;1762498;81;21158;-78
2021/04/18 08:21:37;;;;;;;8.25;5.03;;;;;;;11.32;54.75;97006.98;1732662;82;21105;-81
2021/04/18 08:24:22;;;;;;;12.65;5.17;;;;;;;11.62;53.81;97010.12;1817564;79;21223;-79
2021/04/18 08:27:08;;;;;;;13.10;4.95;;;;;;;11.61;51.03;97004.48;1736420;82;21140;-80
2021/04/18 08:29:56;;;;;;;10.25;4.20;;;;;;;11.76;51.30;97007.61;1746948;81;21104;-78
2021/04/18 08:32:43;;;;;;;5.40;4.67;;;;;;;11.83;50.29;96996.86;1737741;81;21132;-79
2021/04/18 08:35:16;;;;;;;;;;;;;;;11.90;45.82;97000.30;1740573;81;21160;-80
2021/04/18 08:38:04;;;;;;;4.62;3.70;;;;;;;11.86;45.17;96997.92;1737539;82;20179;-84
2021/04/18 08:40:32;;;;;;;6.08;4.35;;;;;;;11.93;48.93;97000.87;1734243;82;21233;-81
2021/04/18 08:43:19;;;;;;;4.10;3.22;;;;;;;11.83;48.59;96997.35;1791600;79;21116;-84
2021/04/18 08:45:57;;;;;;;6.15;4.28;;;;;;;11.74;47.65;96992.88;1776721;80;21460;-86
2021/04/18 08:48:25;;;;;;;8.65;5.00;;;;;;;11.55;48.64;96988.69;1764344;79;21164;-85
2021/04/18 08:51:13;;;;;;;7.22;4.40;;;;;;;11.64;49.26;96987.56;1811454;79;21127;-85
2021/04/18 08:53:59;;;;;;;5.72;4.12;;;;;;;11.77;48.53;96984.20;1789689;80;21266;-84
2021/04/18 08:56:48;;;;;;;6.03;4.70;;;;;;;11.76;48.94;96983.84;1770938;80;21165;-83
2021/04/18 08:59:23;;;;;;;6.15;4.53;;;;;;;11.84;48.84;96984.00;1790636;80;21278;-85
2021/04/18 09:02:15;;;;;;;7.62;4.85;;;;;;;12.07;49.21;96975.05;1779002;79;21100;-86
2021/04/18 09:04:47;;;;;;;7.53;5.05;;;;;;;12.31;49.22;96978.19;1718059;82;21154;-84
2021/04/18 09:07:19;;;;;;;10.75;4.40;;;;;;;12.57;49.19;96963.09;1784893;80;21250;-84
2021/04/18 09:09:48;;;;;;;6.87;5.47;;;;;;;12.84;48.63;96958.09;1795116;79;21558;-86
2021/04/18 09:12:18;;;;;;;8.18;4.80;;;;;;;13.06;48.80;96963.05;1724783;82;21589;-82
2021/04/18 09:14:48;;;;;;;8.08;4.85;;;;;;;13.35;48.27;96954.20;1726464;82;21156;-90
2021/04/18 09:17:38;;;;;;;5.97;4.03;;;;;;;13.65;47.72;96954.97;1721064;82;21565;-86
2021/04/18 09:20:15;;;;;;;8.98;4.40;;;;;;;13.90;47.89;96949.96;1732141;82;21594;-86
2021/04/18 09:22:43;;;;;;;6.92;5.15;;;;;;;14.09;46.61;96949.51;1789044;80;21181;-86
2021/04/18 09:25:20;;;;;;;7.50;4.85;;;;;;;14.11;45.60;96939.59;1791151;79;21120;-84
2021/04/18 09:27:51;;;;;;;8.73;5.00;;;;;;;14.34;46.16;96949.28;1752862;80;21248;-85
2021/04/18 09:30:22;;;;;;;8.68;5.08;;;;;;;14.56;45.84;96944.02;1732136;82;21574;-84
2021/04/18 09:32:55;;;;;;;9.18;4.95;;;;;;;14.74;44.42;96942.72;1753776;80;21538;-83
2021/04/18 09:35:25;;;;;;;7.17;4.35;;;;;;;14.78;43.34;96940.08;1733498;82;21168;-85
2021/04/18 09:38:00;;;;;;;9.50;4.45;;;;;;;14.95;43.46;96937.55;1742129;81;21132;-84
2021/04/18 09:40:34;;;;;;;7.70;5.05;;;;;;;15.03;42.45;96934.12;1752956;82;21156;-82
2021/04/18 09:43:06;;;;;;;6.95;4.40;;;;;;;15.13;41.60;96938.84;1753468;82;21140;-84
2021/04/18 09:45:35;;;;;;;9.13;5.15;;;;;;;14.81;36.63;96944.23;1716700;82;21203;-85
2021/04/18 09:48:18;;;;;;;4.83;3.25;;;;;;;14.32;37.56;96948.11;1731784;83;21594;-88
2021/04/18 09:51:02;;;;;;;9.48;5.00;;;;;;;14.27;39.13;96934.96;1731917;83;21135;-86
2021/04/18 09:53:31;;;;;;;7.30;4.92;;;;;;;13.89;39.46;96936.37;1722730;82;21162;-87
2021/04/18 09:56:08;;;;;;;6.92;4.87;;;;;;;13.73;38.72;96933.06;1739597;81;21156;-86
2021/04/18 09:58:39;;;;;;;8.15;4.75;;;;;;;13.52;40.41;96938.09;1730809;81;21168;-84
2021/04/18 10:01:35;;;;;;;7.65;5.62;;;;;;;13.42;40.10;96943.41;1740728;80;21168;-85
2021/04/18 10:04:26;;;;;;;5.50;4.37;;;;;;;13.18;39.05;96947.02;1675754;85;21159;-84
2021/04/18 10:07:04;;;;;;;9.05;5.25;;;;;;;13.01;40.36;96948.58;1823516;76;22629;-84
2021/04/18 10:09:56;;;;;;;7.10;5.12;;;;;;;12.76;41.07;96940.27;1802875;77;21129;-84
2021/04/18 10:12:23;;;;;;;7.17;5.25;;;;;;;12.76;41.75;96949.52;1812155;77;21140;-84
2021/04/18 10:15:06;;;;;;;9.83;5.55;;;;;;;12.78;41.94;96943.61;1805410;78;21127;-86
2021/04/18 10:17:36;;;;;;;8.90;5.92;;;;;;;12.62;41.76;96951.61;1806999;78;21664;-83
2021/04/18 10:20:06;;;;;;;12.13;6.20;;;;;;;12.41;41.66;96954.39;1806820;78;21606;-84
2021/04/18 10:22:34;;;;;;;9.55;6.33;;;;;;;12.16;42.27;96957.92;1806699;77;21124;-82
2021/04/18 10:25:08;;;;;;;12.88;5.97;;;;;;;12.07;42.62;96961.38;1795077;78;21108;-82
2021/04/18 10:27:36;;;;;;;5.65;4.65;;;;;;;12.02;43.06;96954.33;1793673;79;21617;-82
2021/04/18 10:30:10;;;;;;;10.65;6.12;;;;;;;12.00;43.38;96958.44;1796765;78;21192;-85
2021/04/18 10:32:41;;;;;;;8.80;6.50;;;;;;;11.99;43.78;96961.23;1733241;81;21139;-86
2021/04/18 10:35:10;;;;;;;9.03;5.42;;;;;;;12.07;44.26;96963.17;1752590;81;21542;-83
2021/04/18 10:37:37;;;;;;;8.90;5.97;;;;;;;12.23;44.70;96966.61;1746632;81;21155;-88
2021/04/18 10:40:06;;;;;;;10.30;7.17;;;;;;;12.18;44.54;96968.34;1743577;82;21147;-85
2021/04/18 10:42:33;;;;;;;7.55;5.60;;;;;;;12.12;44.61;96970.22;1768350;81;21139;-85
2021/04/18 10:45:01;;;;;;;9.03;5.47;;;;;;;12.08;44.39;96974.09;1757396;81;21580;-86
2021/04/18 10:47:28;;;;;;;8.88;7.30;;;;;;;11.94;44.71;96967.35;1743769;82;21143;-89
2021/04/18 10:49:56;;;;;;;9.63;7.12;;;;;;;11.80;45.22;96975.16;1743456;82;21596;-87
2021/04/18 10:52:27;;;;;;;9.40;6.95;;;;;;;11.74;45.57;96982.31;1743819;82;21155;-87
2021/04/18 10:54:54;;;;;;;7.40;6.28;;;;;;;11.69;45.63;96978.75;1744213;82;21139;-88
2021/04/18 10:57:28;;;;;;;8.88;5.37;;;;;;;11.65;46.29;96981.29;1731277;81;21181;-91
2021/04/18 10:59:57;;;;;;;8.33;5.62;;;;;;;11.69;46.03;96991.95;1772017;81;21195;-88
2021/04/18 11:02:25;;;;;;;7.37;5.72;;;;;;;11.69;46.18;96984.03;1742274;82;21093;-84
2021/04/18 11:04:55;;;;;;;10.65;6.35;;;;;;;11.64;45.98;96984.92;1765308;81;21238;-83
2021/04/18 11:07:25;;;;;;;7.90;5.85;;;;;;;11.56;45.82;96991.68;1732938;83;21310;-86
2021/04/18 11:09:53;;;;;;;11.73;6.05;;;;;;;11.65;46.26;96989.20;1732940;81;21712;-85
2021/04/18 11:12:21;;;;;;;6.80;5.60;;;;;;;11.68;46.03;96987.17;1733365;83;21147;-88
2021/04/18 11:14:49;;;;;;;13.50;7.08;;;;;;;11.71;46.25;96994.80;1733189;83;21143;-89
2021/04/18 11:17:17;;;;;;;11.90;6.50;;;;;;;11.71;46.20;97000.58;1732708;83;21557;-87
2021/04/18 11:19:45;;;;;;;9.10;6.33;;;;;;;11.79;46.63;97002.07;1732380;83;21152;-87
2021/04/18 11:22:13;;;;;;;10.08;5.97;;;;;;;11.93;46.47;96992.09;1732235;83;21603;-87
2021/04/18 11:24:40;;;;;;;8.70;5.92;;;;;;;12.07;46.38;96990.44;1731879;83;21618;-88
2021/04/18 11:27:07;;;;;;;6.85;6.00;;;;;;;12.16;46.18;97005.48;1732288;83;21144;-88
2021/04/18 11:29:38;;;;;;;8.85;6.45;;;;;;;12.14;45.61;97010.06;1732234;83;21535;-86
2021/04/18 11:32:06;;;;;;;7.35;5.85;;;;;;;12.10;46.09;97003.86;1747212;81;21116;-87
2021/04/18 11:34:34;;;;;;;8.15;6.83;;;;;;;12.16;46.23;97004.16;1732848;83;21308;-86
2021/04/18 11:37:03;;;;;;;7.60;5.90;;;;;;;12.21;46.05;97006.39;1732454;83;21214;-87
2021/04/18 11:39:35;;;;;;;8.75;6.12;;;;;;;12.05;46.08;97011.37;1748434;81;21136;-86
2021/04/18 11:42:05;;;;;;;9.90;6.50;;;;;;;11.84;46.63;97005.63;1679828;85;21200;-87
2021/04/18 11:44:36;;;;;;;8.03;6.78;;;;;;;11.87;47.15;97010.66;1679941;84;21141;-91
2021/04/18 11:47:04;;;;;;;8.13;5.40;;;;;;;11.88;47.21;96991.17;1732796;82;21160;-84